createdAt,value
2023-02-16T00:04:48.016Z,101903.00
2023-02-16T00:09:50.121Z,101903.53
2023-02-16T00:14:52.402Z,101893.84
2023-02-16T00:19:55.995Z,101900.06
2023-02-16T00:24:58.175Z,101900.59
2023-02-16T00:30:00.905Z,101896.34
2023-02-16T00:35:05.792Z,101892.59
2023-02-16T00:40:08.702Z,101887.16
2023-02-16T00:45:15.848Z,101887.25
2023-02-16T00:50:22.720Z,101887.72
2023-02-16T00:55:28.482Z,101883.09
2023-02-16T01:00:34.838Z,101881.38
2023-02-16T01:05:38.697Z,101889.16
2023-02-16T01:10:40.689Z,101890.44
2023-02-16T01:15:43.629Z,101885.22
2023-02-16T01:20:47.600Z,101876.91
2023-02-16T01:25:49.765Z,101879.50
2023-02-16T01:30:53.584Z,101883.53
2023-02-16T01:35:58.017Z,101878.97
2023-02-16T01:41:12.684Z,101877.78
2023-02-16T01:46:19.870Z,101878.28
2023-02-16T01:51:27.722Z,101866.44
2023-02-16T01:56:34.312Z,101865.78
2023-02-16T02:01:46.930Z,101864.56
2023-02-16T02:06:50.970Z,101857.22
2023-02-16T02:12:00.807Z,101858.53
2023-02-16T02:17:06.390Z,101847.97
2023-02-16T02:22:34.502Z,101848.66
2023-02-16T02:27:41.178Z,101840.59
2023-02-16T02:33:02.520Z,101838.97
2023-02-16T02:38:13.136Z,101834.00
2023-02-16T02:43:21.029Z,101840.00
2023-02-16T02:48:23.162Z,101829.69
2023-02-16T02:53:25.225Z,101828.06
2023-02-16T02:58:34.526Z,101818.06
2023-02-16T03:03:41.452Z,101824.03
2023-02-16T03:08:48.422Z,101821.22
2023-02-16T03:13:56.375Z,101823.84
2023-02-16T03:18:59.316Z,101827.31
2023-02-16T03:24:05.930Z,101823.84
2023-02-16T03:29:10.009Z,101826.28
2023-02-16T03:34:13.133Z,101830.66
2023-02-16T03:39:16.502Z,101827.38
2023-02-16T03:44:20.304Z,101828.97
2023-02-16T03:49:22.062Z,101833.38
2023-02-16T03:54:24.087Z,101826.66
2023-02-16T03:59:27.872Z,101827.72
2023-02-16T04:04:30.388Z,101833.06
2023-02-16T04:09:32.678Z,101827.31
2023-02-16T04:14:36.462Z,101818.63
2023-02-16T04:19:38.498Z,101820.13
2023-02-16T04:24:40.726Z,101818.16
2023-02-16T04:29:44.507Z,101810.69
2023-02-16T04:34:46.908Z,101822.31
2023-02-16T04:39:49.047Z,101816.03
2023-02-16T04:44:52.662Z,101800.50
2023-02-16T04:49:54.758Z,101807.72
2023-02-16T04:54:56.919Z,101821.16
2023-02-16T05:00:00.807Z,101815.16
2023-02-16T05:05:03.029Z,101811.91
2023-02-16T05:10:07.204Z,101817.38
2023-02-16T05:15:10.616Z,101824.50
2023-02-16T05:20:13.713Z,101824.22
2023-02-16T05:25:16.063Z,101827.97
2023-02-16T05:30:19.930Z,101826.34
2023-02-16T05:35:22.353Z,101822.78
2023-02-16T05:40:24.126Z,101827.47
2023-02-16T05:45:27.870Z,101832.34
2023-02-16T05:50:30.172Z,101837.25
2023-02-16T05:55:32.354Z,101833.78
2023-02-16T06:00:35.723Z,101843.03
2023-02-16T06:05:38.030Z,101848.88
2023-02-16T06:10:40.489Z,101843.47
2023-02-16T06:15:44.355Z,101840.41
2023-02-16T06:20:46.198Z,101841.41
2023-02-16T06:25:51.117Z,101846.59
2023-02-16T06:30:54.714Z,101843.91
2023-02-16T06:35:56.931Z,101843.69
2023-02-16T06:40:59.205Z,101851.03
2023-02-16T06:46:02.561Z,101846.56
2023-02-16T06:51:05.646Z,101846.34
2023-02-16T06:56:08.227Z,101839.59
2023-02-16T07:01:12.048Z,101841.38
2023-02-16T07:06:14.824Z,101843.22
2023-02-16T07:11:18.013Z,101835.00
2023-02-16T07:16:21.553Z,101846.00
2023-02-16T07:21:23.645Z,101837.78
2023-02-16T07:26:25.460Z,101851.09
2023-02-16T07:31:28.740Z,101841.38
2023-02-16T07:36:30.724Z,101843.47
2023-02-16T07:41:32.507Z,101842.97
2023-02-16T07:46:36.195Z,101838.84
2023-02-16T07:51:38.027Z,101845.19
2023-02-16T07:56:40.094Z,101852.88
2023-02-16T08:01:43.279Z,101833.50
2023-02-16T08:06:45.086Z,101844.38
2023-02-16T08:11:47.107Z,101844.13
2023-02-16T08:16:53.562Z,101864.81
2023-02-16T08:21:57.753Z,101860.38
2023-02-16T08:27:00.201Z,101857.03
2023-02-16T08:32:03.946Z,101852.69
2023-02-16T08:37:06.204Z,101853.56
2023-02-16T08:42:11.123Z,101858.88
2023-02-16T08:47:14.303Z,101853.94
2023-02-16T08:52:16.447Z,101850.66
2023-02-16T08:57:18.914Z,101844.75
2023-02-16T09:02:23.339Z,101840.97
2023-02-16T09:07:25.400Z,101833.09
2023-02-16T09:12:27.848Z,101840.94
2023-02-16T09:17:31.041Z,101842.75
2023-02-16T09:22:33.275Z,101830.63
2023-02-16T09:27:35.472Z,101835.84
2023-02-16T09:32:38.715Z,101836.06
2023-02-16T09:37:40.879Z,101834.13
2023-02-16T09:42:56.943Z,101841.28
2023-02-16T09:48:00.499Z,101831.69
2023-02-16T09:53:08.800Z,101828.78
2023-02-16T09:58:16.988Z,101821.75
2023-02-16T10:03:35.745Z,101820.75
2023-02-16T10:08:41.329Z,101830.34
2023-02-16T10:13:51.226Z,101836.97
2023-02-16T10:18:59.939Z,101842.84
2023-02-16T10:24:05.100Z,101840.34
2023-02-16T10:29:08.984Z,101829.38
2023-02-16T10:34:21.972Z,101826.47
2023-02-16T10:39:32.310Z,101819.94
2023-02-16T10:44:38.516Z,101821.56
2023-02-16T10:49:41.913Z,101794.91
2023-02-16T10:54:43.925Z,101808.72
2023-02-16T10:59:47.124Z,101810.94
2023-02-16T11:04:51.880Z,101797.59
2023-02-16T11:09:55.763Z,101795.25
2023-02-16T11:15:02.212Z,101795.34
2023-02-16T11:20:08.301Z,101795.50
2023-02-16T11:25:24.446Z,101790.25
2023-02-16T11:30:33.508Z,101788.56
2023-02-16T11:35:42.618Z,101763.22
2023-02-16T11:40:52.331Z,101765.78
2023-02-16T11:45:59.534Z,101765.16
2023-02-16T11:51:05.959Z,101765.59
2023-02-16T11:56:22.444Z,101741.97
2023-02-16T12:01:36.299Z,101742.97
2023-02-16T12:06:52.247Z,101751.97
2023-02-16T12:12:03.808Z,101742.13
2023-02-16T12:17:19.247Z,101739.53
2023-02-16T12:22:34.606Z,101731.59
2023-02-16T12:27:46.605Z,101724.41
2023-02-16T12:32:58.601Z,101720.75
2023-02-16T12:38:07.944Z,101712.81
2023-02-16T12:43:30.265Z,101721.44
2023-02-16T12:48:39.508Z,101724.09
2023-02-16T12:53:48.602Z,101713.16
2023-02-16T12:59:04.288Z,101710.38
2023-02-16T13:04:18.164Z,101709.47
2023-02-16T13:09:32.205Z,101706.97
2023-02-16T13:14:38.561Z,101698.72
2023-02-16T13:19:42.058Z,101682.03
2023-02-16T13:24:56.058Z,101687.16
2023-02-16T13:30:31.439Z,101669.75
2023-02-16T13:36:04.586Z,101674.13
2023-02-16T13:41:49.931Z,101666.84
2023-02-16T13:46:53.964Z,101673.16
2023-02-16T13:51:56.055Z,101679.03
2023-02-16T13:57:00.340Z,101668.53
2023-02-16T14:02:03.900Z,101675.56
2023-02-16T14:07:31.354Z,101672.13
2023-02-16T14:12:39.668Z,101670.53
2023-02-16T14:17:41.409Z,101674.19
2023-02-16T14:22:51.027Z,101682.28
2023-02-16T14:27:57.486Z,101675.13
2023-02-16T14:33:05.223Z,101677.03
2023-02-16T14:38:17.779Z,101680.44
2023-02-16T14:43:32.039Z,101678.00
2023-02-16T14:49:18.841Z,101670.88
2023-02-16T14:55:02.125Z,101670.88
2023-02-16T15:00:14.703Z,101684.06
2023-02-16T15:05:19.665Z,101676.25
2023-02-16T15:10:27.540Z,101659.50
2023-02-16T15:15:43.685Z,101675.59
2023-02-16T15:20:49.179Z,101677.44
2023-02-16T15:25:55.934Z,101670.41
2023-02-16T15:31:03.059Z,101664.22
2023-02-16T15:36:07.765Z,101666.03
2023-02-16T15:41:14.518Z,101662.47
2023-02-16T15:46:24.691Z,101650.97
2023-02-16T15:51:29.278Z,101644.81
2023-02-16T15:56:38.499Z,101642.19
2023-02-16T16:01:44.127Z,101642.19
2023-02-16T16:06:49.983Z,101635.94
2023-02-16T16:11:54.991Z,101636.81
2023-02-16T16:16:58.863Z,101634.91
2023-02-16T16:22:02.190Z,101617.13
2023-02-16T16:27:08.982Z,101627.59
2023-02-16T16:32:19.907Z,101625.69
2023-02-16T16:37:26.714Z,101623.78
2023-02-16T16:42:29.205Z,101621.00
2023-02-16T16:47:36.567Z,101617.41
2023-02-16T16:52:41.880Z,101609.41
2023-02-16T16:57:44.223Z,101601.41
2023-02-16T17:02:47.686Z,101596.03
2023-02-16T17:07:49.813Z,101607.44
2023-02-16T17:12:53.677Z,101601.28
2023-02-16T17:17:58.344Z,101598.63
2023-02-16T17:23:00.754Z,101611.88
2023-02-16T17:28:04.777Z,101611.00
2023-02-16T17:33:09.042Z,101618.13
2023-02-16T17:38:12.964Z,101611.03
2023-02-16T17:43:15.759Z,101612.81
2023-02-16T17:48:21.188Z,101622.59
2023-02-16T17:53:28.731Z,101636.81
2023-02-16T17:58:30.822Z,101633.25
2023-02-16T18:03:34.422Z,101629.75
2023-02-16T18:08:37.619Z,101613.84
2023-02-16T18:13:41.601Z,101622.63
2023-02-16T18:18:45.672Z,101621.72
2023-02-16T18:23:48.013Z,101634.94
2023-02-16T18:28:49.981Z,101631.38
2023-02-16T18:33:53.142Z,101633.09
2023-02-16T18:38:55.368Z,101624.19
2023-02-16T18:43:57.156Z,101627.72
2023-02-16T18:49:00.821Z,101617.13
2023-02-16T18:54:02.700Z,101614.38
2023-02-16T18:59:04.503Z,101624.06
2023-02-16T19:04:07.800Z,101619.63
2023-02-16T19:09:10.148Z,101613.50
2023-02-16T19:14:12.035Z,101619.63
2023-02-16T19:19:15.507Z,101622.22
2023-02-16T19:24:17.682Z,101619.47
2023-02-16T19:29:20.051Z,101619.53
2023-02-16T19:34:23.361Z,101620.34
2023-02-16T19:39:25.938Z,101615.91
2023-02-16T19:44:28.736Z,101617.59
2023-02-16T19:49:32.424Z,101609.59
2023-02-16T19:54:35.416Z,101608.69
2023-02-16T19:59:37.451Z,101616.69
2023-02-16T20:04:41.180Z,101605.22
2023-02-16T20:09:43.115Z,101609.59
2023-02-16T20:14:45.450Z,101608.72
2023-02-16T20:19:49.860Z,101616.63
2023-02-16T20:24:51.815Z,101612.22
2023-02-16T20:29:53.944Z,101605.19
2023-02-16T20:34:57.265Z,101596.41
2023-02-16T20:39:59.326Z,101590.19
2023-02-16T20:45:01.310Z,101578.63
2023-02-16T20:50:05.474Z,101590.13
2023-02-16T20:55:08.981Z,101588.38
2023-02-16T21:00:15.547Z,101580.47
2023-02-16T21:05:20.147Z,101568.91
2023-02-16T21:10:22.464Z,101567.84
2023-02-16T21:15:24.338Z,101573.88
2023-02-16T21:20:27.563Z,101572.06
2023-02-16T21:25:29.975Z,101579.03
2023-02-16T21:30:34.802Z,101564.94
2023-02-16T21:35:37.971Z,101543.72
2023-02-16T21:40:40.186Z,101563.25
2023-02-16T21:45:42.101Z,101552.66
2023-02-16T21:50:45.396Z,101532.47
2023-02-16T21:55:47.179Z,101530.72
2023-02-16T22:00:50.220Z,101523.66
2023-02-16T22:05:53.402Z,101526.34
2023-02-16T22:10:55.222Z,101513.94
2023-02-16T22:15:57.089Z,101518.34
2023-02-16T22:21:03.338Z,101517.47
2023-02-16T22:26:07.092Z,101501.59
2023-02-16T22:31:09.395Z,101508.59
2023-02-16T22:36:14.061Z,101506.75
2023-02-16T22:41:16.530Z,101497.91
2023-02-16T22:46:18.467Z,101493.50
2023-02-16T22:51:22.042Z,101496.06
2023-02-16T22:56:23.780Z,101497.81
2023-02-16T23:01:27.580Z,101495.19
2023-02-16T23:06:33.168Z,101493.47
2023-02-16T23:11:35.674Z,101491.72
2023-02-16T23:16:37.925Z,101490.81
2023-02-16T23:21:42.294Z,101484.69
2023-02-16T23:26:44.773Z,101475.03
2023-02-16T23:31:47.391Z,101474.09
2023-02-16T23:36:50.953Z,101480.31
2023-02-16T23:41:52.714Z,101489.13
2023-02-16T23:46:54.926Z,101488.25
2023-02-16T23:51:58.795Z,101481.19
2023-02-16T23:57:00.557Z,101473.28
